createdAt,value
2023-04-02T00:00:23.772Z,97670.06
2023-04-02T00:04:08.944Z,97667.21
2023-04-02T00:06:46.382Z,97674.91
2023-04-02T00:09:40.277Z,97672.05
2023-04-02T00:12:32.250Z,97672.12
2023-04-02T00:15:24.261Z,97673.27
2023-04-02T00:18:19.138Z,97674.02
2023-04-02T00:21:19.887Z,97679.10
2023-04-02T00:24:17.312Z,97681.14
2023-04-02T00:27:15.028Z,97682.07
2023-04-02T00:30:08.771Z,97683.18
2023-04-02T00:32:43.689Z,97684.01
2023-04-02T00:35:40.036Z,97683.44
2023-04-02T00:38:34.681Z,97684.23
2023-04-02T00:41:29.739Z,97687.40
2023-04-02T00:44:23.702Z,97683.75
2023-04-02T00:47:20.157Z,97686.71
2023-04-02T00:50:29.794Z,97690.36
2023-04-02T00:53:28.770Z,97690.66
2023-04-02T00:56:04.546Z,97689.23
2023-04-02T00:58:51.977Z,97693.02
2023-04-02T01:01:44.308Z,97690.72
2023-04-02T01:04:37.129Z,97695.89
2023-04-02T01:07:44.796Z,97696.63
2023-04-02T01:10:56.117Z,97705.34
2023-04-02T01:13:58.696Z,97705.58
2023-04-02T01:17:00.504Z,97704.61
2023-04-02T01:20:18.596Z,97702.13
2023-04-02T01:22:59.817Z,97703.13
2023-04-02T01:25:58.928Z,97703.72
2023-04-02T01:29:11.794Z,97705.56
2023-04-02T01:32:07.734Z,97709.92
2023-04-02T01:35:01.264Z,97712.00
2023-04-02T01:37:59.466Z,97709.09
2023-04-02T01:41:00.603Z,97714.63
2023-04-02T01:43:59.371Z,97715.49
2023-04-02T01:46:52.014Z,97713.09
2023-04-02T01:49:44.918Z,97717.08
2023-04-02T01:52:44.311Z,97713.87
2023-04-02T01:55:43.257Z,97714.85
2023-04-02T01:58:35.741Z,97713.09
2023-04-02T02:01:33.044Z,97716.90
2023-04-02T02:04:25.546Z,97721.20
2023-04-02T02:07:20.538Z,97722.64
2023-04-02T02:10:18.274Z,97725.51
2023-04-02T02:13:16.769Z,97722.15
2023-04-02T02:16:14.800Z,97719.77
2023-04-02T02:19:07.704Z,97724.89
2023-04-02T02:22:08.897Z,97729.42
2023-04-02T02:25:05.213Z,97730.52
2023-04-02T02:28:03.716Z,97733.61
2023-04-02T02:30:58.526Z,97737.12
2023-04-02T02:33:54.143Z,97737.98
2023-04-02T02:36:54.556Z,97739.19
2023-04-02T02:39:51.490Z,97743.86
2023-04-02T02:42:49.052Z,97741.66
2023-04-02T02:45:44.026Z,97745.35
2023-04-02T02:48:40.659Z,97747.08
2023-04-02T02:51:56.244Z,97745.38
2023-04-02T02:54:52.474Z,97747.94
2023-04-02T02:57:49.137Z,97751.02
2023-04-02T03:00:41.767Z,97750.01
2023-04-02T03:03:36.117Z,97753.96
2023-04-02T03:06:28.213Z,97754.14
2023-04-02T03:09:30.244Z,97753.84
2023-04-02T03:12:37.633Z,97761.45
2023-04-02T03:15:36.326Z,97763.49
2023-04-02T03:18:39.422Z,97764.01
2023-04-02T03:21:36.259Z,97771.67
2023-04-02T03:24:53.506Z,97771.99
2023-04-02T03:27:49.356Z,97772.91
2023-04-02T03:30:45.797Z,97778.11
2023-04-02T03:33:41.902Z,97779.37
2023-04-02T03:36:43.704Z,97778.99
2023-04-02T03:39:41.255Z,97783.75
2023-04-02T03:42:42.922Z,97785.30
2023-04-02T03:45:41.167Z,97787.27
2023-04-02T03:48:25.845Z,97788.84
2023-04-02T03:51:23.664Z,97792.34
2023-04-02T03:54:18.331Z,97793.58
2023-04-02T03:57:19.556Z,97797.54
2023-04-02T04:00:20.752Z,97800.06
2023-04-02T04:03:16.598Z,97803.93
2023-04-02T04:06:16.496Z,97807.10
2023-04-02T04:09:17.333Z,97808.88
2023-04-02T04:12:20.643Z,97813.93
2023-04-02T04:15:21.888Z,97811.73
2023-04-02T04:18:24.807Z,97813.56
2023-04-02T04:21:29.890Z,97816.83
2023-04-02T04:24:24.747Z,97831.13
2023-04-02T04:27:25.423Z,97835.09
2023-04-02T04:30:22.995Z,97834.15
2023-04-02T04:33:22.918Z,97834.09
2023-04-02T04:36:28.563Z,97837.52
2023-04-02T04:39:29.679Z,97838.48
2023-04-02T04:42:25.616Z,97840.44
2023-04-02T04:45:29.958Z,97845.02
2023-04-02T04:48:26.661Z,97853.55
2023-04-02T04:51:25.032Z,97854.77
2023-04-02T04:54:18.566Z,97858.59
2023-04-02T04:57:26.736Z,97857.21
2023-04-02T05:00:21.940Z,97862.81
2023-04-02T05:03:22.440Z,97867.64
2023-04-02T05:06:23.445Z,97870.30
2023-04-02T05:09:23.881Z,97876.15
2023-04-02T05:12:27.670Z,97878.12
2023-04-02T05:15:27.574Z,97880.23
2023-04-02T05:18:29.503Z,97889.83
2023-04-02T05:21:27.132Z,97896.83
2023-04-02T05:24:37.523Z,97901.38
2023-04-02T05:27:29.631Z,97905.11
2023-04-02T05:30:39.832Z,97908.67
2023-04-02T05:33:34.218Z,97913.59
2023-04-02T05:36:26.399Z,97921.13
2023-04-02T05:39:24.682Z,97926.73
2023-04-02T05:42:22.826Z,97930.39
2023-04-02T05:45:25.509Z,97934.99
2023-04-02T05:48:21.851Z,97940.34
2023-04-02T05:51:19.940Z,97944.23
2023-04-02T05:53:59.630Z,97949.85
2023-04-02T05:56:55.153Z,97952.54
2023-04-02T05:59:51.416Z,97955.39
2023-04-02T06:02:52.996Z,97961.84
2023-04-02T06:05:47.166Z,97964.98
2023-04-02T06:08:45.146Z,97967.85
2023-04-02T06:11:42.330Z,97968.73
2023-04-02T06:14:34.498Z,97972.64
2023-04-02T06:17:27.403Z,97979.95
2023-04-02T06:20:21.999Z,97987.80
2023-04-02T06:23:20.500Z,97991.40
2023-04-02T06:26:18.004Z,97998.88
2023-04-02T06:29:15.828Z,98003.52
2023-04-02T06:32:09.908Z,98009.95
2023-04-02T06:35:01.946Z,98021.67
2023-04-02T06:37:58.030Z,98031.84
2023-04-02T06:40:54.053Z,98033.12
2023-04-02T06:43:50.743Z,98041.88
2023-04-02T06:46:49.514Z,98048.61
2023-04-02T06:49:47.068Z,98052.66
2023-04-02T06:52:45.958Z,98062.17
2023-04-02T06:55:49.086Z,98062.89
2023-04-02T06:58:41.161Z,98066.41
2023-04-02T07:01:37.132Z,98074.50
2023-04-02T07:04:29.389Z,98076.96
2023-04-02T07:07:21.464Z,98081.58
2023-04-02T07:10:14.095Z,98090.67
2023-04-02T07:13:06.403Z,98091.20
2023-04-02T07:15:58.478Z,98095.65
2023-04-02T07:18:50.967Z,98100.34
2023-04-02T07:21:42.987Z,98107.48
2023-04-02T07:24:35.040Z,98112.96
2023-04-02T07:27:27.995Z,98116.30
2023-04-02T07:30:20.258Z,98130.72
2023-04-02T07:33:16.399Z,98130.31
2023-04-02T07:36:09.150Z,98135.70
2023-04-02T07:39:02.015Z,98143.51
2023-04-02T07:41:59.181Z,98152.39
2023-04-02T07:44:52.030Z,98153.41
2023-04-02T07:47:44.867Z,98166.08
2023-04-02T07:50:37.615Z,98168.92
2023-04-02T07:53:30.543Z,98180.50
2023-04-02T07:56:23.402Z,98185.48
2023-04-02T07:59:15.411Z,98186.20
2023-04-02T08:02:07.658Z,98190.52
2023-04-02T08:04:59.788Z,98199.01
2023-04-02T08:07:56.963Z,98203.46
2023-04-02T08:10:49.343Z,98216.50
2023-04-02T08:13:41.584Z,98217.28
2023-04-02T08:16:48.456Z,98227.10
2023-04-02T08:19:53.815Z,98234.80
2023-04-02T08:22:47.159Z,98242.30
2023-04-02T08:25:39.147Z,98246.11
2023-04-02T08:28:22.936Z,98247.70
2023-04-02T08:31:14.965Z,98250.30
2023-04-02T08:34:07.236Z,98258.52
2023-04-02T08:37:00.658Z,98262.80
2023-04-02T08:39:52.632Z,98268.50
2023-04-02T08:42:53.912Z,98272.20
2023-04-02T08:45:59.008Z,98276.55
2023-04-02T08:48:56.840Z,98282.30
2023-04-02T08:51:49.860Z,98283.35
2023-04-02T08:54:43.641Z,98287.98
2023-04-02T08:57:41.236Z,98291.95
2023-04-02T09:00:38.109Z,98296.70
2023-04-02T09:03:36.586Z,98297.84
2023-04-02T09:06:29.571Z,98301.98
2023-04-02T09:09:23.345Z,98300.96
2023-04-02T09:12:21.385Z,98303.59
2023-04-02T09:15:24.696Z,98310.04
2023-04-02T09:18:18.762Z,98307.65
2023-04-02T09:21:34.444Z,98314.14
2023-04-02T09:24:26.579Z,98320.36
2023-04-02T09:27:22.833Z,98323.91
2023-04-02T09:30:09.128Z,98327.47
2023-04-02T09:33:07.254Z,98335.46
2023-04-02T09:35:59.702Z,98337.76
2023-04-02T09:39:06.502Z,98345.70
2023-04-02T09:41:39.176Z,98352.19
2023-04-02T09:44:32.327Z,98353.59
2023-04-02T09:47:28.939Z,98358.25
2023-04-02T09:50:27.950Z,98357.48
2023-04-02T09:53:35.703Z,98366.41
2023-04-02T09:56:17.508Z,98368.35
2023-04-02T09:59:06.147Z,98370.96
2023-04-02T10:01:49.168Z,98373.73
2023-04-02T10:04:44.836Z,98383.23
2023-04-02T10:07:34.854Z,98387.16
2023-04-02T10:10:37.053Z,98390.41
2023-04-02T10:13:32.938Z,98394.60
2023-04-02T10:16:19.199Z,98400.42
2023-04-02T10:19:01.917Z,98401.64
2023-04-02T10:21:45.223Z,98407.95
2023-04-02T10:24:20.646Z,98412.70
2023-04-02T10:27:22.846Z,98416.06
2023-04-02T10:30:15.897Z,98417.59
2023-04-02T10:32:56.528Z,98418.09
2023-04-02T10:35:55.473Z,98424.45
2023-04-02T10:38:49.680Z,98429.69
2023-04-02T10:41:36.556Z,98428.92
2023-04-02T10:44:44.538Z,98431.73
2023-04-02T10:47:44.707Z,98434.22
2023-04-02T10:50:45.744Z,98437.59
2023-04-02T10:53:45.000Z,98443.46
2023-04-02T10:56:50.179Z,98447.09
2023-04-02T10:59:49.070Z,98446.64
2023-04-02T11:02:50.074Z,98453.97
2023-04-02T11:05:47.021Z,98455.10
2023-04-02T11:08:43.245Z,98461.82
2023-04-02T11:11:41.110Z,98461.87
2023-04-02T11:14:34.286Z,98467.90
2023-04-02T11:17:26.714Z,98471.67
2023-04-02T11:21:04.703Z,98474.08
2023-04-02T11:24:02.841Z,98478.28
2023-04-02T11:26:55.312Z,98486.44
2023-04-02T11:29:49.832Z,98489.36
2023-04-02T11:32:43.640Z,98490.29
2023-04-02T11:35:42.142Z,98495.45
2023-04-02T11:38:55.001Z,98499.36
2023-04-02T11:42:06.695Z,98503.59
2023-04-02T11:44:49.001Z,98504.75
2023-04-02T11:47:41.040Z,98506.24
2023-04-02T11:50:35.546Z,98508.59
2023-04-02T11:53:32.447Z,98515.50
2023-04-02T11:56:48.268Z,98512.75
2023-04-02T11:59:51.530Z,98520.64
2023-04-02T12:02:59.456Z,98518.70
2023-04-02T12:06:00.457Z,98520.85
2023-04-02T12:09:05.973Z,98519.24
2023-04-02T12:11:58.030Z,98525.19
2023-04-02T12:14:52.877Z,98524.52
2023-04-02T12:17:45.037Z,98532.55
2023-04-02T12:20:37.810Z,98538.17
2023-04-02T12:23:32.898Z,98543.83
2023-04-02T12:26:37.455Z,98544.38
2023-04-02T12:29:30.835Z,98544.23
2023-04-02T12:32:30.708Z,98546.73
2023-04-02T12:35:35.941Z,98551.95
2023-04-02T12:38:29.838Z,98552.73
2023-04-02T12:41:26.972Z,98552.64
2023-04-02T12:44:21.681Z,98556.69
2023-04-02T12:47:16.011Z,98555.52
2023-04-02T12:50:15.462Z,98559.33
2023-04-02T12:53:20.225Z,98561.09
2023-04-02T12:55:56.807Z,98565.66
2023-04-02T12:58:39.699Z,98572.95
2023-04-02T13:01:19.457Z,98572.79
2023-04-02T13:04:09.109Z,98575.40
2023-04-02T13:07:02.092Z,98584.58
2023-04-02T13:09:46.769Z,98588.11
2023-04-02T13:12:41.122Z,98591.12
2023-04-02T13:15:27.183Z,98592.30
2023-04-02T13:18:24.840Z,98596.79
2023-04-02T13:21:01.004Z,98597.97
2023-04-02T13:23:42.355Z,98607.27
2023-04-02T13:26:34.723Z,98606.84
2023-04-02T13:29:18.075Z,98609.31
2023-04-02T13:32:14.420Z,98611.40
2023-04-02T13:35:08.048Z,98615.64
2023-04-02T13:37:40.103Z,98619.77
2023-04-02T13:40:29.837Z,98622.17
2023-04-02T13:43:22.721Z,98627.84
2023-04-02T13:46:00.971Z,98630.48
2023-04-02T13:48:33.030Z,98631.64
2023-04-02T13:51:31.715Z,98634.54
2023-04-02T13:54:03.957Z,98630.02
2023-04-02T13:56:57.440Z,98636.40
2023-04-02T13:59:49.463Z,98638.98
2023-04-02T14:02:46.284Z,98637.52
2023-04-02T14:05:49.054Z,98638.42
2023-04-02T14:08:53.427Z,98640.19
2023-04-02T14:11:46.923Z,98643.52
2023-04-02T14:14:55.831Z,98655.38
2023-04-02T14:17:47.412Z,98658.89
2023-04-02T14:20:39.228Z,98660.52
2023-04-02T14:23:52.653Z,98669.70
2023-04-02T14:27:01.995Z,98670.76
2023-04-02T14:30:03.106Z,98677.05
2023-04-02T14:32:42.824Z,98673.64
2023-04-02T14:35:38.288Z,98678.41
2023-04-02T14:38:30.400Z,98681.86
2023-04-02T14:41:28.859Z,98686.48
2023-04-02T14:44:12.321Z,98684.13
2023-04-02T14:47:17.498Z,98685.96
2023-04-02T14:49:57.529Z,98691.11
2023-04-02T14:52:56.996Z,98690.06
2023-04-02T14:55:48.345Z,98697.52
2023-04-02T14:58:24.347Z,98701.14
2023-04-02T15:01:05.715Z,98702.66
2023-04-02T15:03:55.516Z,98703.57
2023-04-02T15:06:38.061Z,98709.88
2023-04-02T15:09:33.245Z,98711.66
2023-04-02T15:12:29.879Z,98709.19
2023-04-02T15:15:15.296Z,98721.59
2023-04-02T15:18:00.580Z,98724.40
2023-04-02T15:21:00.771Z,98726.94
2023-04-02T15:23:50.974Z,98729.73
2023-04-02T15:26:50.599Z,98730.28
2023-04-02T15:29:35.689Z,98736.76
2023-04-02T15:32:37.157Z,98739.66
2023-04-02T15:35:37.721Z,98744.08
2023-04-02T15:38:15.924Z,98750.73
2023-04-02T15:41:15.426Z,98749.88
2023-04-02T15:44:00.238Z,98756.64
2023-04-02T15:46:55.539Z,98758.16
2023-04-02T15:49:56.304Z,98765.46
2023-04-02T15:52:55.316Z,98766.36
2023-04-02T15:55:51.040Z,98772.04
2023-04-02T15:58:54.745Z,98772.58
2023-04-02T16:01:55.228Z,98778.50
2023-04-02T16:04:44.154Z,98776.92
2023-04-02T16:07:54.697Z,98778.44
2023-04-02T16:10:42.522Z,98780.77
2023-04-02T16:13:37.176Z,98782.86
2023-04-02T16:16:16.208Z,98786.29
2023-04-02T16:18:57.610Z,98792.02
2023-04-02T16:21:44.384Z,98798.66
2023-04-02T16:24:36.634Z,98801.11
2023-04-02T16:27:35.649Z,98807.09
2023-04-02T16:30:35.126Z,98809.91
2023-04-02T16:33:33.832Z,98811.98
2023-04-02T16:36:17.620Z,98817.98
2023-04-02T16:39:23.740Z,98822.77
2023-04-02T16:42:11.141Z,98825.67
2023-04-02T16:45:01.418Z,98831.16
2023-04-02T16:48:05.558Z,98828.63
2023-04-02T16:51:10.811Z,98835.72
2023-04-02T16:54:08.841Z,98839.13
2023-04-02T16:57:19.984Z,98838.77
2023-04-02T17:00:02.951Z,98844.35
2023-04-02T17:03:08.116Z,98846.04
2023-04-02T17:06:06.696Z,98846.14
2023-04-02T17:08:48.245Z,98854.83
2023-04-02T17:11:46.359Z,98856.08
2023-04-02T17:14:43.943Z,98855.58
2023-04-02T17:17:36.256Z,98862.33
2023-04-02T17:20:29.245Z,98868.00
2023-04-02T17:23:22.027Z,98868.22
2023-04-02T17:26:17.249Z,98872.10
2023-04-02T17:29:17.103Z,98876.62
2023-04-02T17:31:53.426Z,98876.23
2023-04-02T17:34:31.238Z,98880.29
2023-04-02T17:37:23.035Z,98881.63
2023-04-02T17:40:27.095Z,98885.88
2023-04-02T17:43:32.401Z,98890.30
2023-04-02T17:46:35.546Z,98893.85
2023-04-02T17:49:32.927Z,98894.71
2023-04-02T17:52:13.173Z,98895.52
2023-04-02T17:55:15.457Z,98901.30
2023-04-02T17:58:19.830Z,98903.80
2023-04-02T18:01:07.685Z,98906.48
2023-04-02T18:03:53.601Z,98911.13
2023-04-02T18:06:33.520Z,98915.90
2023-04-02T18:09:37.286Z,98914.34
2023-04-02T18:12:45.732Z,98920.40
2023-04-02T18:16:07.644Z,98923.26
2023-04-02T18:19:16.092Z,98924.79
2023-04-02T18:21:56.126Z,98926.10
2023-04-02T18:24:46.289Z,98931.21
2023-04-02T18:27:41.845Z,98932.67
2023-04-02T18:30:27.988Z,98938.14
2023-04-02T18:33:23.222Z,98939.38
2023-04-02T18:36:21.872Z,98941.27
2023-04-02T18:39:24.624Z,98948.33
2023-04-02T18:42:06.590Z,98947.29
2023-04-02T18:44:59.788Z,98947.39
2023-04-02T18:48:03.433Z,98950.36
2023-04-02T18:50:47.052Z,98948.49
2023-04-02T18:53:40.763Z,98952.75
2023-04-02T18:56:17.317Z,98952.77
2023-04-02T18:59:02.337Z,98954.65
2023-04-02T19:01:57.186Z,98961.41
2023-04-02T19:04:40.128Z,98962.13
2023-04-02T19:07:19.623Z,98965.88
2023-04-02T19:10:25.054Z,98967.89
2023-04-02T19:13:19.363Z,98967.73
2023-04-02T19:16:42.944Z,98971.77
2023-04-02T19:19:39.986Z,98982.77
2023-04-02T19:22:34.979Z,98981.89
2023-04-02T19:25:58.902Z,98983.02
2023-04-02T19:29:13.102Z,98989.17
2023-04-02T19:31:57.941Z,98988.34
2023-04-02T19:34:44.805Z,98988.55
2023-04-02T19:37:27.180Z,98990.63
2023-04-02T19:40:29.888Z,98992.88
2023-04-02T19:43:22.290Z,98990.05
2023-04-02T19:46:05.787Z,98993.70
2023-04-02T19:48:46.749Z,98991.22
2023-04-02T19:51:21.364Z,98991.92
2023-04-02T19:53:58.951Z,98996.44
2023-04-02T19:56:51.428Z,98994.08
2023-04-02T19:59:43.769Z,98998.70
2023-04-02T20:02:18.005Z,98998.31
2023-04-02T20:05:11.450Z,99007.02
2023-04-02T20:08:03.682Z,99004.66
2023-04-02T20:10:58.408Z,99005.82
2023-04-02T20:13:50.761Z,99005.69
2023-04-02T20:16:44.414Z,99006.88
2023-04-02T20:19:37.366Z,99011.40
2023-04-02T20:22:29.414Z,99011.88
2023-04-02T20:25:21.328Z,99013.09
2023-04-02T20:28:13.439Z,99015.48
2023-04-02T20:30:49.943Z,99013.90
2023-04-02T20:33:42.631Z,99021.05
2023-04-02T20:36:34.813Z,99021.23
2023-04-02T20:39:28.718Z,99021.96
2023-04-02T20:42:20.931Z,99027.09
2023-04-02T20:45:13.894Z,99032.56
2023-04-02T20:48:06.986Z,99031.37
2023-04-02T20:50:59.585Z,99035.07
2023-04-02T20:53:52.196Z,99040.55
2023-04-02T20:56:44.658Z,99041.15
2023-04-02T20:59:36.632Z,99041.74
2023-04-02T21:02:28.639Z,99041.79
2023-04-02T21:05:20.742Z,99048.55
2023-04-02T21:08:12.715Z,99051.67
2023-04-02T21:11:06.553Z,99051.38
2023-04-02T21:13:58.716Z,99056.09
2023-04-02T21:16:50.597Z,99059.20
2023-04-02T21:19:42.551Z,99059.32
2023-04-02T21:22:34.557Z,99058.83
2023-04-02T21:25:26.532Z,99060.82
2023-04-02T21:28:18.496Z,99061.23
2023-04-02T21:31:12.239Z,99063.77
2023-04-02T21:34:05.243Z,99063.66
2023-04-02T21:36:57.230Z,99067.38
2023-04-02T21:39:49.243Z,99071.38
2023-04-02T21:42:41.420Z,99075.09
2023-04-02T21:45:22.643Z,99076.41
2023-04-02T21:48:14.775Z,99078.09
2023-04-02T21:50:46.632Z,99082.38
2023-04-02T21:53:18.499Z,99083.35
2023-04-02T21:56:13.257Z,99082.88
2023-04-02T21:59:06.756Z,99089.55
2023-04-02T22:01:58.933Z,99087.02
2023-04-02T22:04:34.318Z,99095.80
2023-04-02T22:07:08.568Z,99098.58
2023-04-02T22:09:40.630Z,99104.73
2023-04-02T22:12:32.836Z,99110.81
2023-04-02T22:15:25.660Z,99111.77
2023-04-02T22:18:17.758Z,99113.40
2023-04-02T22:20:56.524Z,99114.93
2023-04-02T22:23:49.361Z,99114.81
2023-04-02T22:26:41.802Z,99117.73
2023-04-02T22:29:19.094Z,99119.08
2023-04-02T22:31:53.574Z,99124.52
2023-04-02T22:34:45.796Z,99127.90
2023-04-02T22:37:37.917Z,99125.52
2023-04-02T22:40:30.782Z,99127.23
2023-04-02T22:43:14.140Z,99127.27
2023-04-02T22:45:59.243Z,99133.77
2023-04-02T22:48:40.804Z,99131.02
2023-04-02T22:51:32.913Z,99131.73
2023-04-02T22:54:24.937Z,99130.06
2023-04-02T22:57:17.107Z,99132.33
2023-04-02T23:00:13.402Z,99136.02
2023-04-02T23:03:06.133Z,99137.94
2023-04-02T23:06:06.079Z,99137.82
2023-04-02T23:08:58.127Z,99139.98
2023-04-02T23:11:50.365Z,99140.85
2023-04-02T23:14:42.371Z,99141.81
2023-04-02T23:17:35.840Z,99138.45
2023-04-02T23:20:27.909Z,99135.06
2023-04-02T23:23:19.887Z,99135.11
2023-04-02T23:26:15.442Z,99132.73
2023-04-02T23:29:07.533Z,99130.98
2023-04-02T23:31:59.515Z,99132.80
2023-04-02T23:34:51.733Z,99135.55
2023-04-02T23:37:43.751Z,99134.95
2023-04-02T23:40:35.955Z,99136.45
2023-04-02T23:43:28.281Z,99139.95
2023-04-02T23:46:20.527Z,99138.02
2023-04-02T23:49:13.568Z,99141.31
2023-04-02T23:52:05.628Z,99137.77
2023-04-02T23:54:39.954Z,99144.84
2023-04-02T23:57:32.095Z,99143.36
